sensor_id;sensor_type;location;lat;lon;timestamp;P1;durP1;ratioP1;P2;durP2;ratioP2
33254;SDS011;19623;52.482;9.762;2023-02-12T00:00:31;28.90;;;13.00;;
33254;SDS011;19623;52.482;9.762;2023-02-12T00:02:57;43.88;;;14.10;;
33254;SDS011;19623;52.482;9.762;2023-02-12T00:05:26;33.17;;;14.05;;
33254;SDS011;19623;52.482;9.762;2023-02-12T00:07:52;40.22;;;15.38;;
33254;SDS011;19623;52.482;9.762;2023-02-12T00:10:18;34.13;;;14.73;;
33254;SDS011;19623;52.482;9.762;2023-02-12T00:12:44;40.35;;;14.48;;
33254;SDS011;19623;52.482;9.762;2023-02-12T00:15:09;33.35;;;13.82;;
33254;SDS011;19623;52.482;9.762;2023-02-12T00:17:35;42.45;;;14.40;;
33254;SDS011;19623;52.482;9.762;2023-02-12T00:20:01;38.95;;;13.55;;
33254;SDS011;19623;52.482;9.762;2023-02-12T00:22:26;31.35;;;12.38;;
33254;SDS011;19623;52.482;9.762;2023-02-12T00:24:53;35.13;;;12.80;;
33254;SDS011;19623;52.482;9.762;2023-02-12T00:27:20;27.75;;;12.50;;
33254;SDS011;19623;52.482;9.762;2023-02-12T00:29:46;37.88;;;12.88;;
33254;SDS011;19623;52.482;9.762;2023-02-12T00:32:12;36.65;;;12.75;;
33254;SDS011;19623;52.482;9.762;2023-02-12T00:34:38;35.40;;;12.10;;
33254;SDS011;19623;52.482;9.762;2023-02-12T00:37:05;30.88;;;12.10;;
33254;SDS011;19623;52.482;9.762;2023-02-12T00:39:31;37.67;;;13.00;;
33254;SDS011;19623;52.482;9.762;2023-02-12T00:41:56;24.75;;;11.25;;
33254;SDS011;19623;52.482;9.762;2023-02-12T00:44:22;31.80;;;12.00;;
33254;SDS011;19623;52.482;9.762;2023-02-12T00:46:48;26.63;;;10.98;;
33254;SDS011;19623;52.482;9.762;2023-02-12T00:49:13;26.63;;;11.23;;
33254;SDS011;19623;52.482;9.762;2023-02-12T00:51:39;32.83;;;11.48;;
33254;SDS011;19623;52.482;9.762;2023-02-12T00:54:05;32.70;;;10.75;;
33254;SDS011;19623;52.482;9.762;2023-02-12T00:56:31;30.27;;;11.25;;
33254;SDS011;19623;52.482;9.762;2023-02-12T00:58:56;27.80;;;11.30;;
33254;SDS011;19623;52.482;9.762;2023-02-12T01:01:22;35.03;;;11.13;;
33254;SDS011;19623;52.482;9.762;2023-02-12T01:03:48;22.73;;;10.82;;
33254;SDS011;19623;52.482;9.762;2023-02-12T01:06:14;23.40;;;10.13;;
33254;SDS011;19623;52.482;9.762;2023-02-12T01:08:40;22.13;;;10.68;;
33254;SDS011;19623;52.482;9.762;2023-02-12T01:11:05;22.13;;;10.07;;
33254;SDS011;19623;52.482;9.762;2023-02-12T01:13:32;26.38;;;9.85;;
33254;SDS011;19623;52.482;9.762;2023-02-12T01:16:02;27.05;;;9.80;;
33254;SDS011;19623;52.482;9.762;2023-02-12T01:18:32;30.85;;;10.82;;
33254;SDS011;19623;52.482;9.762;2023-02-12T01:20:58;17.23;;;9.50;;
33254;SDS011;19623;52.482;9.762;2023-02-12T01:23:23;31.08;;;10.02;;
33254;SDS011;19623;52.482;9.762;2023-02-12T01:25:49;23.80;;;10.40;;
33254;SDS011;19623;52.482;9.762;2023-02-12T01:28:15;18.48;;;10.15;;
33254;SDS011;19623;52.482;9.762;2023-02-12T01:30:41;23.52;;;9.98;;
33254;SDS011;19623;52.482;9.762;2023-02-12T01:33:06;24.25;;;10.02;;
33254;SDS011;19623;52.482;9.762;2023-02-12T01:35:32;29.85;;;11.20;;
33254;SDS011;19623;52.482;9.762;2023-02-12T01:37:58;28.48;;;10.68;;
33254;SDS011;19623;52.482;9.762;2023-02-12T01:40:23;22.60;;;9.30;;
33254;SDS011;19623;52.482;9.762;2023-02-12T01:42:49;28.63;;;10.15;;
33254;SDS011;19623;52.482;9.762;2023-02-12T01:47:41;27.08;;;12.07;;
33254;SDS011;19623;52.482;9.762;2023-02-12T01:50:10;28.67;;;10.90;;
33254;SDS011;19623;52.482;9.762;2023-02-12T01:52:44;27.58;;;10.98;;
33254;SDS011;19623;52.482;9.762;2023-02-12T01:55:12;32.03;;;11.82;;
33254;SDS011;19623;52.482;9.762;2023-02-12T01:57:40;22.02;;;10.50;;
33254;SDS011;19623;52.482;9.762;2023-02-12T02:00:15;23.83;;;11.55;;
33254;SDS011;19623;52.482;9.762;2023-02-12T02:02:46;26.92;;;12.10;;
33254;SDS011;19623;52.482;9.762;2023-02-12T02:05:23;26.15;;;11.90;;
33254;SDS011;19623;52.482;9.762;2023-02-12T02:08:06;30.83;;;11.25;;
33254;SDS011;19623;52.482;9.762;2023-02-12T02:10:33;21.25;;;10.90;;
33254;SDS011;19623;52.482;9.762;2023-02-12T02:12:59;22.33;;;11.02;;
33254;SDS011;19623;52.482;9.762;2023-02-12T02:15:45;25.63;;;11.50;;
33254;SDS011;19623;52.482;9.762;2023-02-12T02:31:53;25.05;;;11.93;;
33254;SDS011;19623;52.482;9.762;2023-02-12T02:34:49;23.48;;;11.43;;
33254;SDS011;19623;52.482;9.762;2023-02-12T02:37:59;21.42;;;11.75;;
33254;SDS011;19623;52.482;9.762;2023-02-12T02:40:48;25.48;;;12.40;;
33254;SDS011;19623;52.482;9.762;2023-02-12T02:43:31;23.83;;;12.38;;
33254;SDS011;19623;52.482;9.762;2023-02-12T02:46:31;19.42;;;11.45;;
33254;SDS011;19623;52.482;9.762;2023-02-12T02:49:04;22.27;;;12.35;;
33254;SDS011;19623;52.482;9.762;2023-02-12T02:51:39;22.98;;;12.75;;
33254;SDS011;19623;52.482;9.762;2023-02-12T02:56:44;27.38;;;12.93;;
33254;SDS011;19623;52.482;9.762;2023-02-12T02:59:21;22.58;;;12.27;;
33254;SDS011;19623;52.482;9.762;2023-02-12T03:02:10;27.95;;;12.00;;
33254;SDS011;19623;52.482;9.762;2023-02-12T03:04:44;25.30;;;12.65;;
33254;SDS011;19623;52.482;9.762;2023-02-12T03:07:24;24.02;;;12.43;;
33254;SDS011;19623;52.482;9.762;2023-02-12T03:09:52;27.83;;;13.82;;
33254;SDS011;19623;52.482;9.762;2023-02-12T03:17:57;28.40;;;12.65;;
33254;SDS011;19623;52.482;9.762;2023-02-12T03:20:36;20.67;;;11.82;;
33254;SDS011;19623;52.482;9.762;2023-02-12T03:23:11;26.70;;;12.18;;
33254;SDS011;19623;52.482;9.762;2023-02-12T03:28:28;25.02;;;12.25;;
33254;SDS011;19623;52.482;9.762;2023-02-12T03:31:02;25.00;;;12.20;;
33254;SDS011;19623;52.482;9.762;2023-02-12T03:33:38;25.45;;;11.73;;
33254;SDS011;19623;52.482;9.762;2023-02-12T03:39:19;20.73;;;10.15;;
33254;SDS011;19623;52.482;9.762;2023-02-12T03:47:20;17.50;;;9.90;;
33254;SDS011;19623;52.482;9.762;2023-02-12T03:50:01;23.17;;;10.52;;
33254;SDS011;19623;52.482;9.762;2023-02-12T03:52:54;25.80;;;9.93;;
33254;SDS011;19623;52.482;9.762;2023-02-12T03:55:19;19.85;;;9.07;;
33254;SDS011;19623;52.482;9.762;2023-02-12T03:57:49;18.88;;;8.52;;
33254;SDS011;19623;52.482;9.762;2023-02-12T04:00:23;17.20;;;8.98;;
33254;SDS011;19623;52.482;9.762;2023-02-12T04:02:49;16.83;;;8.52;;
33254;SDS011;19623;52.482;9.762;2023-02-12T04:05:17;16.63;;;8.75;;
33254;SDS011;19623;52.482;9.762;2023-02-12T04:07:45;15.60;;;8.50;;
33254;SDS011;19623;52.482;9.762;2023-02-12T04:10:11;19.13;;;9.35;;
33254;SDS011;19623;52.482;9.762;2023-02-12T04:18:09;15.07;;;8.07;;
33254;SDS011;19623;52.482;9.762;2023-02-12T04:28:53;11.48;;;7.18;;
33254;SDS011;19623;52.482;9.762;2023-02-12T04:31:33;13.82;;;7.55;;
33254;SDS011;19623;52.482;9.762;2023-02-12T04:34:08;11.23;;;6.85;;
33254;SDS011;19623;52.482;9.762;2023-02-12T04:36:58;13.27;;;6.80;;
33254;SDS011;19623;52.482;9.762;2023-02-12T04:39:41;12.80;;;6.38;;
33254;SDS011;19623;52.482;9.762;2023-02-12T04:42:10;12.20;;;7.18;;
33254;SDS011;19623;52.482;9.762;2023-02-12T04:44:38;12.32;;;7.13;;
33254;SDS011;19623;52.482;9.762;2023-02-12T04:47:05;11.05;;;6.50;;
33254;SDS011;19623;52.482;9.762;2023-02-12T04:49:30;12.00;;;7.20;;
33254;SDS011;19623;52.482;9.762;2023-02-12T04:51:56;13.75;;;7.15;;
33254;SDS011;19623;52.482;9.762;2023-02-12T04:54:22;10.82;;;6.47;;
33254;SDS011;19623;52.482;9.762;2023-02-12T04:56:48;11.65;;;6.47;;
33254;SDS011;19623;52.482;9.762;2023-02-12T04:59:15;13.43;;;6.93;;
33254;SDS011;19623;52.482;9.762;2023-02-12T05:01:41;12.18;;;7.38;;
33254;SDS011;19623;52.482;9.762;2023-02-12T05:04:09;14.77;;;6.78;;
33254;SDS011;19623;52.482;9.762;2023-02-12T05:06:36;15.73;;;7.53;;
33254;SDS011;19623;52.482;9.762;2023-02-12T05:09:03;19.83;;;7.57;;
33254;SDS011;19623;52.482;9.762;2023-02-12T05:11:30;15.57;;;7.90;;
33254;SDS011;19623;52.482;9.762;2023-02-12T05:13:56;17.73;;;8.15;;
33254;SDS011;19623;52.482;9.762;2023-02-12T05:16:22;13.90;;;7.32;;
33254;SDS011;19623;52.482;9.762;2023-02-12T05:18:48;16.85;;;7.20;;
33254;SDS011;19623;52.482;9.762;2023-02-12T05:21:14;14.70;;;7.93;;
33254;SDS011;19623;52.482;9.762;2023-02-12T05:23:40;15.10;;;7.80;;
33254;SDS011;19623;52.482;9.762;2023-02-12T05:26:07;18.40;;;7.40;;
33254;SDS011;19623;52.482;9.762;2023-02-12T05:28:37;16.13;;;8.13;;
33254;SDS011;19623;52.482;9.762;2023-02-12T05:31:04;14.13;;;8.75;;
33254;SDS011;19623;52.482;9.762;2023-02-12T05:33:30;21.20;;;10.45;;
33254;SDS011;19623;52.482;9.762;2023-02-12T05:36:06;18.35;;;9.48;;
33254;SDS011;19623;52.482;9.762;2023-02-12T05:38:34;19.17;;;10.15;;
33254;SDS011;19623;52.482;9.762;2023-02-12T05:41:03;20.30;;;9.10;;
33254;SDS011;19623;52.482;9.762;2023-02-12T05:43:31;21.85;;;9.60;;
33254;SDS011;19623;52.482;9.762;2023-02-12T05:46:00;19.88;;;9.57;;
33254;SDS011;19623;52.482;9.762;2023-02-12T05:48:27;22.27;;;9.77;;
33254;SDS011;19623;52.482;9.762;2023-02-12T05:50:54;24.63;;;9.88;;
33254;SDS011;19623;52.482;9.762;2023-02-12T05:53:25;21.65;;;10.57;;
33254;SDS011;19623;52.482;9.762;2023-02-12T05:55:51;23.90;;;10.30;;
33254;SDS011;19623;52.482;9.762;2023-02-12T05:58:16;25.23;;;9.85;;
33254;SDS011;19623;52.482;9.762;2023-02-12T06:00:42;27.45;;;10.88;;
33254;SDS011;19623;52.482;9.762;2023-02-12T06:03:07;25.33;;;10.88;;
33254;SDS011;19623;52.482;9.762;2023-02-12T06:05:33;22.45;;;9.88;;
33254;SDS011;19623;52.482;9.762;2023-02-12T06:07:58;27.95;;;11.02;;
33254;SDS011;19623;52.482;9.762;2023-02-12T06:10:24;20.27;;;10.07;;
33254;SDS011;19623;52.482;9.762;2023-02-12T06:12:53;24.77;;;12.50;;
33254;SDS011;19623;52.482;9.762;2023-02-12T06:15:19;29.58;;;13.65;;
33254;SDS011;19623;52.482;9.762;2023-02-12T06:17:45;33.65;;;15.02;;
33254;SDS011;19623;52.482;9.762;2023-02-12T06:20:10;32.90;;;14.30;;
33254;SDS011;19623;52.482;9.762;2023-02-12T06:22:36;40.85;;;15.45;;
33254;SDS011;19623;52.482;9.762;2023-02-12T06:25:02;29.42;;;13.90;;
33254;SDS011;19623;52.482;9.762;2023-02-12T06:27:32;32.22;;;14.98;;
33254;SDS011;19623;52.482;9.762;2023-02-12T06:29:57;30.15;;;13.93;;
33254;SDS011;19623;52.482;9.762;2023-02-12T06:32:23;37.88;;;15.00;;
33254;SDS011;19623;52.482;9.762;2023-02-12T06:34:49;32.33;;;14.88;;
33254;SDS011;19623;52.482;9.762;2023-02-12T06:37:15;31.80;;;13.82;;
33254;SDS011;19623;52.482;9.762;2023-02-12T06:39:40;32.28;;;14.88;;
33254;SDS011;19623;52.482;9.762;2023-02-12T06:42:06;41.97;;;14.70;;
33254;SDS011;19623;52.482;9.762;2023-02-12T06:44:31;38.80;;;14.32;;
33254;SDS011;19623;52.482;9.762;2023-02-12T06:46:57;33.08;;;14.75;;
33254;SDS011;19623;52.482;9.762;2023-02-12T06:49:23;36.45;;;15.52;;
33254;SDS011;19623;52.482;9.762;2023-02-12T06:51:48;34.72;;;14.73;;
33254;SDS011;19623;52.482;9.762;2023-02-12T06:54:15;39.65;;;16.02;;
33254;SDS011;19623;52.482;9.762;2023-02-12T06:56:41;32.90;;;14.45;;
33254;SDS011;19623;52.482;9.762;2023-02-12T06:59:09;35.92;;;15.00;;
33254;SDS011;19623;52.482;9.762;2023-02-12T07:04:04;36.00;;;15.00;;
33254;SDS011;19623;52.482;9.762;2023-02-12T07:06:30;36.70;;;15.35;;
33254;SDS011;19623;52.482;9.762;2023-02-12T07:08:57;36.55;;;15.57;;
33254;SDS011;19623;52.482;9.762;2023-02-12T07:11:27;31.83;;;14.82;;
33254;SDS011;19623;52.482;9.762;2023-02-12T07:13:54;35.50;;;14.32;;
33254;SDS011;19623;52.482;9.762;2023-02-12T07:16:20;29.42;;;13.98;;
33254;SDS011;19623;52.482;9.762;2023-02-12T07:18:46;33.10;;;14.63;;
33254;SDS011;19623;52.482;9.762;2023-02-12T07:21:13;38.45;;;15.95;;
33254;SDS011;19623;52.482;9.762;2023-02-12T07:23:40;35.35;;;15.65;;
33254;SDS011;19623;52.482;9.762;2023-02-12T07:26:10;34.38;;;14.60;;
33254;SDS011;19623;52.482;9.762;2023-02-12T07:28:39;34.50;;;14.77;;
33254;SDS011;19623;52.482;9.762;2023-02-12T07:33:33;31.15;;;15.57;;
33254;SDS011;19623;52.482;9.762;2023-02-12T07:35:59;33.85;;;14.65;;
33254;SDS011;19623;52.482;9.762;2023-02-12T07:38:25;34.38;;;16.23;;
33254;SDS011;19623;52.482;9.762;2023-02-12T07:40:52;37.83;;;15.75;;
33254;SDS011;19623;52.482;9.762;2023-02-12T07:43:17;35.75;;;16.05;;
33254;SDS011;19623;52.482;9.762;2023-02-12T07:45:43;38.55;;;16.42;;
33254;SDS011;19623;52.482;9.762;2023-02-12T07:48:14;34.25;;;14.85;;
33254;SDS011;19623;52.482;9.762;2023-02-12T07:50:40;39.50;;;16.15;;
33254;SDS011;19623;52.482;9.762;2023-02-12T07:53:05;36.45;;;16.88;;
33254;SDS011;19623;52.482;9.762;2023-02-12T07:55:31;33.42;;;14.35;;
33254;SDS011;19623;52.482;9.762;2023-02-12T07:57:57;42.88;;;15.25;;
33254;SDS011;19623;52.482;9.762;2023-02-12T08:00:23;32.25;;;14.95;;
33254;SDS011;19623;52.482;9.762;2023-02-12T08:02:52;36.88;;;16.77;;
33254;SDS011;19623;52.482;9.762;2023-02-12T08:05:18;31.40;;;14.30;;
33254;SDS011;19623;52.482;9.762;2023-02-12T08:07:44;31.17;;;14.35;;
33254;SDS011;19623;52.482;9.762;2023-02-12T08:10:09;34.60;;;14.30;;
33254;SDS011;19623;52.482;9.762;2023-02-12T08:12:35;31.80;;;15.20;;
33254;SDS011;19623;52.482;9.762;2023-02-12T08:15:01;32.47;;;13.90;;
33254;SDS011;19623;52.482;9.762;2023-02-12T08:17:26;31.67;;;15.55;;
33254;SDS011;19623;52.482;9.762;2023-02-12T08:19:52;33.95;;;15.43;;
33254;SDS011;19623;52.482;9.762;2023-02-12T08:22:18;34.03;;;13.90;;
33254;SDS011;19623;52.482;9.762;2023-02-12T08:24:43;33.78;;;14.93;;
33254;SDS011;19623;52.482;9.762;2023-02-12T08:27:09;32.13;;;15.82;;
33254;SDS011;19623;52.482;9.762;2023-02-12T08:29:35;28.00;;;13.25;;
33254;SDS011;19623;52.482;9.762;2023-02-12T08:32:01;32.15;;;14.82;;
33254;SDS011;19623;52.482;9.762;2023-02-12T08:34:31;27.95;;;13.52;;
33254;SDS011;19623;52.482;9.762;2023-02-12T08:36:58;35.25;;;14.73;;
33254;SDS011;19623;52.482;9.762;2023-02-12T08:39:25;32.80;;;13.52;;
33254;SDS011;19623;52.482;9.762;2023-02-12T08:41:53;36.33;;;15.50;;
33254;SDS011;19623;52.482;9.762;2023-02-12T08:44:20;30.05;;;13.15;;
33254;SDS011;19623;52.482;9.762;2023-02-12T08:46:46;27.90;;;12.52;;
33254;SDS011;19623;52.482;9.762;2023-02-12T08:49:18;37.70;;;14.32;;
33254;SDS011;19623;52.482;9.762;2023-02-12T08:51:46;29.52;;;13.77;;
33254;SDS011;19623;52.482;9.762;2023-02-12T08:54:18;25.95;;;13.02;;
33254;SDS011;19623;52.482;9.762;2023-02-12T08:56:45;27.05;;;12.90;;
33254;SDS011;19623;52.482;9.762;2023-02-12T08:59:12;32.20;;;14.15;;
33254;SDS011;19623;52.482;9.762;2023-02-12T09:04:15;27.23;;;12.98;;
33254;SDS011;19623;52.482;9.762;2023-02-12T09:06:56;25.65;;;12.18;;
33254;SDS011;19623;52.482;9.762;2023-02-12T09:09:22;27.23;;;12.75;;
33254;SDS011;19623;52.482;9.762;2023-02-12T09:11:48;26.58;;;12.52;;
33254;SDS011;19623;52.482;9.762;2023-02-12T09:14:16;26.98;;;13.00;;
33254;SDS011;19623;52.482;9.762;2023-02-12T09:16:47;33.78;;;13.80;;
33254;SDS011;19623;52.482;9.762;2023-02-12T09:19:13;26.92;;;12.45;;
33254;SDS011;19623;52.482;9.762;2023-02-12T09:21:40;28.92;;;13.77;;
33254;SDS011;19623;52.482;9.762;2023-02-12T09:24:05;28.88;;;12.32;;
33254;SDS011;19623;52.482;9.762;2023-02-12T09:26:31;33.80;;;13.65;;
33254;SDS011;19623;52.482;9.762;2023-02-12T09:28:57;31.83;;;12.93;;
33254;SDS011;19623;52.482;9.762;2023-02-12T09:31:24;29.80;;;13.48;;
33254;SDS011;19623;52.482;9.762;2023-02-12T09:33:57;30.73;;;14.10;;
33254;SDS011;19623;52.482;9.762;2023-02-12T09:36:24;29.05;;;12.73;;
33254;SDS011;19623;52.482;9.762;2023-02-12T09:38:50;28.20;;;12.80;;
33254;SDS011;19623;52.482;9.762;2023-02-12T09:44:04;33.92;;;14.38;;
33254;SDS011;19623;52.482;9.762;2023-02-12T09:52:03;25.38;;;12.02;;
33254;SDS011;19623;52.482;9.762;2023-02-12T09:54:36;22.08;;;11.32;;
33254;SDS011;19623;52.482;9.762;2023-02-12T09:57:05;25.23;;;12.55;;
33254;SDS011;19623;52.482;9.762;2023-02-12T09:59:57;28.17;;;12.65;;
33254;SDS011;19623;52.482;9.762;2023-02-12T10:02:35;23.52;;;10.38;;
33254;SDS011;19623;52.482;9.762;2023-02-12T10:05:04;22.08;;;10.88;;
33254;SDS011;19623;52.482;9.762;2023-02-12T10:27:52;26.42;;;14.20;;
33254;SDS011;19623;52.482;9.762;2023-02-12T10:30:30;28.52;;;14.77;;
33254;SDS011;19623;52.482;9.762;2023-02-12T10:33:13;29.38;;;14.63;;
33254;SDS011;19623;52.482;9.762;2023-02-12T10:35:43;25.15;;;13.55;;
33254;SDS011;19623;52.482;9.762;2023-02-12T10:38:49;26.95;;;13.82;;
33254;SDS011;19623;52.482;9.762;2023-02-12T10:41:10;24.08;;;10.45;;
33254;SDS011;19623;52.482;9.762;2023-02-12T10:43:39;21.80;;;11.38;;
33254;SDS011;19623;52.482;9.762;2023-02-12T10:46:04;23.45;;;10.60;;
33254;SDS011;19623;52.482;9.762;2023-02-12T10:48:31;19.67;;;10.85;;
33254;SDS011;19623;52.482;9.762;2023-02-12T10:51:05;21.38;;;11.18;;
33254;SDS011;19623;52.482;9.762;2023-02-12T10:57:06;19.20;;;10.80;;
33254;SDS011;19623;52.482;9.762;2023-02-12T10:59:32;18.80;;;10.80;;
33254;SDS011;19623;52.482;9.762;2023-02-12T11:01:58;19.48;;;10.82;;
33254;SDS011;19623;52.482;9.762;2023-02-12T11:04:28;18.17;;;9.60;;
33254;SDS011;19623;52.482;9.762;2023-02-12T11:07:00;17.35;;;9.93;;
33254;SDS011;19623;52.482;9.762;2023-02-12T11:09:33;17.70;;;9.23;;
33254;SDS011;19623;52.482;9.762;2023-02-12T11:12:04;16.45;;;8.98;;
33254;SDS011;19623;52.482;9.762;2023-02-12T11:14:56;15.00;;;8.65;;
33254;SDS011;19623;52.482;9.762;2023-02-12T11:17:35;16.00;;;9.60;;
33254;SDS011;19623;52.482;9.762;2023-02-12T11:20:07;17.08;;;9.23;;
33254;SDS011;19623;52.482;9.762;2023-02-12T11:22:53;16.80;;;8.95;;
33254;SDS011;19623;52.482;9.762;2023-02-12T11:25:19;19.33;;;9.68;;
33254;SDS011;19623;52.482;9.762;2023-02-12T11:28:04;18.20;;;9.07;;
33254;SDS011;19623;52.482;9.762;2023-02-12T11:33:25;17.63;;;9.57;;
33254;SDS011;19623;52.482;9.762;2023-02-12T11:38:35;17.42;;;9.30;;
33254;SDS011;19623;52.482;9.762;2023-02-12T11:41:07;15.00;;;9.05;;
33254;SDS011;19623;52.482;9.762;2023-02-12T11:44:09;17.00;;;9.00;;
33254;SDS011;19623;52.482;9.762;2023-02-12T11:46:37;15.93;;;8.65;;
33254;SDS011;19623;52.482;9.762;2023-02-12T11:49:04;16.88;;;8.57;;
33254;SDS011;19623;52.482;9.762;2023-02-12T11:51:33;15.32;;;8.82;;
33254;SDS011;19623;52.482;9.762;2023-02-12T11:54:01;14.18;;;8.43;;
33254;SDS011;19623;52.482;9.762;2023-02-12T11:56:40;14.18;;;8.65;;
33254;SDS011;19623;52.482;9.762;2023-02-12T12:01:42;13.85;;;7.55;;
33254;SDS011;19623;52.482;9.762;2023-02-12T12:04:10;14.23;;;8.23;;
33254;SDS011;19623;52.482;9.762;2023-02-12T12:06:40;13.57;;;7.53;;
33254;SDS011;19623;52.482;9.762;2023-02-12T12:09:13;11.90;;;7.25;;
33254;SDS011;19623;52.482;9.762;2023-02-12T12:14:16;14.57;;;8.75;;
33254;SDS011;19623;52.482;9.762;2023-02-12T12:33:37;16.70;;;8.77;;
33254;SDS011;19623;52.482;9.762;2023-02-12T12:41:18;14.75;;;8.38;;
33254;SDS011;19623;52.482;9.762;2023-02-12T12:51:37;14.20;;;7.32;;
33254;SDS011;19623;52.482;9.762;2023-02-12T13:05:35;20.05;;;11.30;;
33254;SDS011;19623;52.482;9.762;2023-02-12T13:13:23;17.98;;;10.00;;
33254;SDS011;19623;52.482;9.762;2023-02-12T13:23:58;21.48;;;11.02;;
33254;SDS011;19623;52.482;9.762;2023-02-12T13:26:46;22.98;;;10.73;;
33254;SDS011;19623;52.482;9.762;2023-02-12T13:29:18;19.40;;;10.98;;
33254;SDS011;19623;52.482;9.762;2023-02-12T13:31:52;17.58;;;9.73;;
33254;SDS011;19623;52.482;9.762;2023-02-12T13:34:25;17.15;;;9.93;;
33254;SDS011;19623;52.482;9.762;2023-02-12T13:36:53;16.77;;;9.35;;
33254;SDS011;19623;52.482;9.762;2023-02-12T13:39:24;13.85;;;8.13;;
33254;SDS011;19623;52.482;9.762;2023-02-12T13:41:54;14.80;;;8.73;;
33254;SDS011;19623;52.482;9.762;2023-02-12T13:44:35;14.48;;;8.75;;
33254;SDS011;19623;52.482;9.762;2023-02-12T13:47:08;18.50;;;8.95;;
33254;SDS011;19623;52.482;9.762;2023-02-12T13:57:45;12.60;;;7.97;;
33254;SDS011;19623;52.482;9.762;2023-02-12T14:03:11;14.68;;;8.45;;
33254;SDS011;19623;52.482;9.762;2023-02-12T14:05:38;13.40;;;7.47;;
33254;SDS011;19623;52.482;9.762;2023-02-12T14:08:04;11.57;;;6.95;;
33254;SDS011;19623;52.482;9.762;2023-02-12T14:10:38;11.98;;;7.18;;
33254;SDS011;19623;52.482;9.762;2023-02-12T14:13:16;11.57;;;6.55;;
33254;SDS011;19623;52.482;9.762;2023-02-12T14:15:52;12.40;;;6.97;;
33254;SDS011;19623;52.482;9.762;2023-02-12T14:18:24;10.98;;;7.32;;
33254;SDS011;19623;52.482;9.762;2023-02-12T14:21:53;11.75;;;6.97;;
33254;SDS011;19623;52.482;9.762;2023-02-12T14:23:53;12.82;;;7.40;;
33254;SDS011;19623;52.482;9.762;2023-02-12T14:26:39;10.93;;;7.10;;
33254;SDS011;19623;52.482;9.762;2023-02-12T14:29:05;12.82;;;6.82;;
33254;SDS011;19623;52.482;9.762;2023-02-12T14:31:45;12.07;;;6.40;;
33254;SDS011;19623;52.482;9.762;2023-02-12T14:36:44;11.02;;;7.22;;
33254;SDS011;19623;52.482;9.762;2023-02-12T14:41:55;10.80;;;7.35;;
33254;SDS011;19623;52.482;9.762;2023-02-12T14:44:42;10.60;;;6.47;;
33254;SDS011;19623;52.482;9.762;2023-02-12T14:47:14;13.80;;;6.78;;
33254;SDS011;19623;52.482;9.762;2023-02-12T14:49:52;11.23;;;6.60;;
33254;SDS011;19623;52.482;9.762;2023-02-12T14:52:23;11.20;;;7.00;;
33254;SDS011;19623;52.482;9.762;2023-02-12T14:55:05;14.48;;;7.05;;
33254;SDS011;19623;52.482;9.762;2023-02-12T14:57:43;13.93;;;7.35;;
33254;SDS011;19623;52.482;9.762;2023-02-12T15:02:41;9.77;;;6.13;;
33254;SDS011;19623;52.482;9.762;2023-02-12T15:05:20;11.48;;;6.50;;
33254;SDS011;19623;52.482;9.762;2023-02-12T15:07:57;9.90;;;6.30;;
33254;SDS011;19623;52.482;9.762;2023-02-12T15:10:36;8.75;;;5.25;;
33254;SDS011;19623;52.482;9.762;2023-02-12T15:13:23;10.00;;;6.07;;
33254;SDS011;19623;52.482;9.762;2023-02-12T15:21:48;11.32;;;6.57;;
33254;SDS011;19623;52.482;9.762;2023-02-12T15:24:24;12.02;;;6.22;;
33254;SDS011;19623;52.482;9.762;2023-02-12T15:26:55;10.00;;;6.53;;
33254;SDS011;19623;52.482;9.762;2023-02-12T15:29:38;9.73;;;5.78;;
33254;SDS011;19623;52.482;9.762;2023-02-12T15:32:08;10.00;;;5.70;;
33254;SDS011;19623;52.482;9.762;2023-02-12T15:34:42;8.30;;;5.65;;
33254;SDS011;19623;52.482;9.762;2023-02-12T15:37:16;8.65;;;5.35;;
33254;SDS011;19623;52.482;9.762;2023-02-12T15:39:49;8.02;;;5.07;;
33254;SDS011;19623;52.482;9.762;2023-02-12T15:42:22;8.20;;;4.87;;
33254;SDS011;19623;52.482;9.762;2023-02-12T15:47:38;6.10;;;4.30;;
33254;SDS011;19623;52.482;9.762;2023-02-12T15:50:05;7.97;;;4.65;;
33254;SDS011;19623;52.482;9.762;2023-02-12T15:52:36;8.52;;;4.70;;
33254;SDS011;19623;52.482;9.762;2023-02-12T15:55:06;7.05;;;4.18;;
33254;SDS011;19623;52.482;9.762;2023-02-12T15:57:40;6.93;;;4.28;;
33254;SDS011;19623;52.482;9.762;2023-02-12T16:00:22;6.80;;;4.20;;
33254;SDS011;19623;52.482;9.762;2023-02-12T16:02:54;5.85;;;3.80;;
33254;SDS011;19623;52.482;9.762;2023-02-12T16:05:20;5.63;;;4.05;;
33254;SDS011;19623;52.482;9.762;2023-02-12T16:07:46;7.15;;;4.35;;
33254;SDS011;19623;52.482;9.762;2023-02-12T16:10:13;7.85;;;4.72;;
33254;SDS011;19623;52.482;9.762;2023-02-12T16:12:41;9.55;;;4.60;;
33254;SDS011;19623;52.482;9.762;2023-02-12T16:15:27;6.70;;;4.05;;
33254;SDS011;19623;52.482;9.762;2023-02-12T16:17:55;6.43;;;4.00;;
33254;SDS011;19623;52.482;9.762;2023-02-12T16:20:24;10.07;;;4.68;;
33254;SDS011;19623;52.482;9.762;2023-02-12T16:22:52;7.15;;;4.32;;
33254;SDS011;19623;52.482;9.762;2023-02-12T16:27:54;6.10;;;4.68;;
33254;SDS011;19623;52.482;9.762;2023-02-12T16:30:40;6.72;;;4.05;;
33254;SDS011;19623;52.482;9.762;2023-02-12T16:35:59;7.35;;;4.80;;
33254;SDS011;19623;52.482;9.762;2023-02-12T16:38:51;8.30;;;4.80;;
33254;SDS011;19623;52.482;9.762;2023-02-12T16:46:26;8.27;;;5.40;;
33254;SDS011;19623;52.482;9.762;2023-02-12T16:48:53;8.73;;;4.70;;
33254;SDS011;19623;52.482;9.762;2023-02-12T16:51:32;8.23;;;4.68;;
33254;SDS011;19623;52.482;9.762;2023-02-12T16:54:00;7.43;;;4.53;;
33254;SDS011;19623;52.482;9.762;2023-02-12T16:56:37;7.18;;;4.75;;
33254;SDS011;19623;52.482;9.762;2023-02-12T16:59:03;7.38;;;4.30;;
33254;SDS011;19623;52.482;9.762;2023-02-12T17:01:30;10.10;;;5.22;;
33254;SDS011;19623;52.482;9.762;2023-02-12T17:03:58;7.85;;;4.88;;
33254;SDS011;19623;52.482;9.762;2023-02-12T17:06:28;6.45;;;4.40;;
33254;SDS011;19623;52.482;9.762;2023-02-12T17:08:55;8.25;;;3.83;;
33254;SDS011;19623;52.482;9.762;2023-02-12T17:11:21;8.07;;;5.18;;
33254;SDS011;19623;52.482;9.762;2023-02-12T17:13:48;8.52;;;4.63;;
33254;SDS011;19623;52.482;9.762;2023-02-12T17:16:16;7.55;;;4.35;;
33254;SDS011;19623;52.482;9.762;2023-02-12T17:18:42;5.47;;;3.90;;
33254;SDS011;19623;52.482;9.762;2023-02-12T17:23:42;7.88;;;3.67;;
33254;SDS011;19623;52.482;9.762;2023-02-12T17:26:08;6.18;;;3.78;;
33254;SDS011;19623;52.482;9.762;2023-02-12T17:28:33;5.28;;;3.40;;
33254;SDS011;19623;52.482;9.762;2023-02-12T17:30:59;6.15;;;4.13;;
33254;SDS011;19623;52.482;9.762;2023-02-12T17:33:27;5.32;;;3.90;;
33254;SDS011;19623;52.482;9.762;2023-02-12T17:35:53;8.15;;;4.40;;
33254;SDS011;19623;52.482;9.762;2023-02-12T17:38:19;6.75;;;4.22;;
33254;SDS011;19623;52.482;9.762;2023-02-12T17:40:45;7.05;;;4.68;;
33254;SDS011;19623;52.482;9.762;2023-02-12T17:43:11;6.25;;;4.18;;
33254;SDS011;19623;52.482;9.762;2023-02-12T17:45:40;6.70;;;4.30;;
33254;SDS011;19623;52.482;9.762;2023-02-12T17:48:07;6.30;;;3.97;;
33254;SDS011;19623;52.482;9.762;2023-02-12T17:50:34;8.20;;;4.45;;
33254;SDS011;19623;52.482;9.762;2023-02-12T17:52:59;8.18;;;4.53;;
33254;SDS011;19623;52.482;9.762;2023-02-12T17:55:25;8.60;;;4.47;;
33254;SDS011;19623;52.482;9.762;2023-02-12T17:57:51;8.02;;;4.75;;
33254;SDS011;19623;52.482;9.762;2023-02-12T18:00:18;7.78;;;4.75;;
33254;SDS011;19623;52.482;9.762;2023-02-12T18:02:45;8.75;;;4.35;;